Time;durP1;ratioP1;P1;durP2;ratioP2;P2;SDS_P1;SDS_P2;PMS_P1;PMS_P2;Temp;Humidity;BMP_temperature;BMP_pressure;BME280_temperature;BME280_humidity;BME280_pressure;Samples;Min_cycle;Max_cycle;Signal;HPM_P1;HPM_P2
2023/06/30 00:00:52;;;;;;;;;;;;;;;30.29;36.38;93955.50;4948786;28;7055;-62
2023/06/30 00:03:19;;;;;;;;;;;;;;;30.28;35.95;93947.69;4959502;28;7250;-62
2023/06/30 00:05:47;;;;;;;;;;;;;;;30.27;36.52;93938.66;4969744;28;7223;-62
2023/06/30 00:08:32;;;;;;;;;;;;;;;30.24;35.93;93939.00;4970748;28;7307;-62
2023/06/30 00:11:10;;;;;;;;;;;;;;;30.23;35.55;93935.50;4952776;28;7280;-62
2023/06/30 00:13:47;;;;;;;;;;;;;;;30.22;35.87;93928.47;4961744;28;7100;-62
2023/06/30 00:16:43;;;;;;;;;;;;;;;30.21;35.59;93924.22;4968285;28;7013;-62
2023/06/30 00:19:23;;;;;;;;;;;;;;;30.21;35.70;93920.72;4962306;28;7342;-62
2023/06/30 00:21:52;;;;;;;;;;;;;;;30.25;35.68;93921.09;4968065;28;8941;-62
2023/06/30 00:24:37;;;;;;;;;;;;;;;30.23;35.65;93918.13;4966555;28;8967;-62
2023/06/30 00:27:34;;;;;;;;;;;;;;;30.21;35.70;93918.66;4981022;28;7192;-62
2023/06/30 00:30:15;;;;;;;;;;;;;;;30.19;36.29;93920.53;4974197;28;7409;-62
2023/06/30 00:33:15;;;;;;;;;;;;;;;30.19;36.19;93920.53;4974765;28;7711;-63
2023/06/30 00:35:54;;;;;;;;;;;;;;;30.18;36.84;93911.47;4953088;28;9084;-62
2023/06/30 00:38:39;;;;;;;;;;;;;;;30.19;36.73;93904.59;4952715;28;9106;-62
2023/06/30 00:41:06;;;;;;;;;;;;;;;30.17;36.54;93901.63;4952041;28;7516;-62
2023/06/30 00:43:41;;;;;;;;;;;;;;;30.18;35.70;93900.38;4937301;28;7219;-63
2023/06/30 00:46:20;;;;;;;;;;;;;;;30.16;35.71;93902.94;4953191;28;7459;-62
2023/06/30 00:48:56;;;;;;;;;;;;;;;30.17;36.48;93909.97;4972442;28;7058;-62
2023/06/30 00:51:32;;;;;;;;;;;;;;;30.14;35.54;93894.44;4968305;28;7244;-62
2023/06/30 00:54:02;;;;;;;;;;;;;;;30.19;36.41;93906.66;4968171;28;8084;-62
2023/06/30 00:56:47;;;;;;;;;;;;;;;30.20;35.26;93906.09;4953382;28;6981;-62
2023/06/30 00:59:35;;;;;;;;;;;;;;;30.16;36.00;93908.50;4952105;28;7210;-62
2023/06/30 01:02:18;;;;;;;;;;;;;;;30.15;36.68;93909.78;4955127;28;7492;-62
2023/06/30 01:05:09;;;;;;;;;;;;;;;30.18;36.42;93910.72;4967632;28;7332;-63
2023/06/30 01:07:46;;;;;;;;;;;;;;;30.20;36.44;93913.66;4990894;28;7427;-62
2023/06/30 01:10:42;;;;;;;;;;;;;;;30.23;36.21;93901.47;4975701;28;7332;-62
2023/06/30 01:13:11;;;;;;;;;;;;;;;30.24;35.84;93902.94;4964647;28;7145;-62
2023/06/30 01:19:37;;;;;;;;;;;;;;;30.22;36.04;93886.84;4933053;29;8811;-62
2023/06/30 01:22:42;;;;;;;;;;;;;;;30.20;36.24;93886.69;4931327;29;8749;-62
2023/06/30 01:25:29;;;;;;;;;;;;;;;30.21;36.21;93882.59;4878251;29;9083;-62
2023/06/30 01:28:06;;;;;;;;;;;;;;;30.22;35.35;93886.84;4894889;29;7126;-62
2023/06/30 01:30:50;;;;;;;;;;;;;;;30.24;35.39;93892.59;4894320;29;7284;-62
2023/06/30 01:33:16;;;;;;;;;;;;;;;30.23;35.15;93885.56;4894762;29;7074;-62
2023/06/30 01:35:56;;;;;;;;;;;;;;;30.22;35.64;93883.34;4895123;29;8490;-62
2023/06/30 01:38:56;;;;;;;;;;;;;;;30.22;36.27;93886.84;4896239;29;7448;-62
2023/06/30 01:41:33;;;;;;;;;;;;;;;30.24;35.99;93891.84;4883090;29;7037;-62
2023/06/30 01:44:02;;;;;;;;;;;;;;;30.24;35.58;93881.50;4883192;29;9066;-62
2023/06/30 01:46:59;;;;;;;;;;;;;;;30.25;36.03;93888.53;4897920;29;9175;-62
2023/06/30 01:49:28;;;;;;;;;;;;;;;30.21;35.50;93884.66;4840480;29;7565;-62
2023/06/30 01:51:58;;;;;;;;;;;;;;;30.20;35.12;93875.56;4861920;29;7130;-62
2023/06/30 01:54:24;;;;;;;;;;;;;;;30.23;35.55;93874.44;4872499;29;7655;-62
2023/06/30 01:56:50;;;;;;;;;;;;;;;30.22;35.33;93873.00;4874700;29;9120;-62
2023/06/30 01:59:17;;;;;;;;;;;;;;;30.23;35.77;93871.69;4917380;28;8787;-62
2023/06/30 02:01:46;;;;;;;;;;;;;;;30.22;36.02;93869.47;4965333;28;7172;-62
2023/06/30 02:04:12;;;;;;;;;;;;;;;30.23;35.12;93868.91;4933660;28;9618;-62
2023/06/30 02:06:42;;;;;;;;;;;;;;;30.24;36.17;93864.09;4935493;28;7241;-62
2023/06/30 02:09:20;;;;;;;;;;;;;;;30.21;35.49;93871.50;4937573;28;7220;-62
2023/06/30 02:11:56;;;;;;;;;;;;;;;30.21;35.10;93874.28;4954450;28;9066;-62
2023/06/30 02:14:31;;;;;;;;;;;;;;;30.23;36.14;93879.28;4955075;28;9404;-62
2023/06/30 02:17:28;;;;;;;;;;;;;;;30.21;35.69;93874.28;4954969;28;9160;-62
2023/06/30 02:20:28;;;;;;;;;;;;;;;30.22;35.65;93873.00;4860393;29;7629;-62
2023/06/30 02:22:56;;;;;;;;;;;;;;;30.19;35.48;93865.75;4861692;29;7162;-63
2023/06/30 02:25:30;;;;;;;;;;;;;;;30.18;35.36;93871.88;4904218;28;7052;-63
2023/06/30 02:28:31;;;;;;;;;;;;;;;30.17;36.26;93875.94;4953689;28;7301;-63
2023/06/30 02:30:56;;;;;;;;;;;;;;;30.17;35.37;93875.94;4954342;28;9126;-62
2023/06/30 02:33:42;;;;;;;;;;;;;;;30.16;35.36;93866.88;4971356;28;10037;-62
2023/06/30 02:36:09;;;;;;;;;;;;;;;30.16;35.96;93875.22;4954577;28;7272;-63
2023/06/30 02:39:29;;;;;;;;;;;;;;;30.18;36.31;93871.88;4939116;28;9163;-62
2023/06/30 02:42:33;;;;;;;;;;;;;;;30.16;35.67;93871.69;4860365;29;7216;-62
2023/06/30 02:45:17;;;;;;;;;;;;;;;30.14;36.04;93872.25;4836377;29;9068;-62
2023/06/30 02:47:43;;;;;;;;;;;;;;;30.14;35.75;93863.94;4841229;29;7255;-63
2023/06/30 02:50:22;;;;;;;;;;;;;;;30.13;34.98;93858.91;4823086;29;7005;-62
2023/06/30 02:53:12;;;;;;;;;;;;;;;30.16;35.34;93860.59;4826804;29;7231;-62
2023/06/30 02:55:46;;;;;;;;;;;;;;;30.17;36.24;93859.28;4851438;29;7227;-63
2023/06/30 02:58:57;;;;;;;;;;;;;;;30.16;35.32;93846.72;4881604;29;7423;-62
2023/06/30 03:01:50;;;;;;;;;;;;;;;30.14;35.02;93854.88;4879118;29;7203;-62
2023/06/30 03:04:37;;;;;;;;;;;;;;;30.14;35.66;93847.28;4896563;29;9087;-63
2023/06/30 03:07:11;;;;;;;;;;;;;;;30.13;35.68;93848.56;4876991;29;7794;-63
2023/06/30 03:09:46;;;;;;;;;;;;;;;30.12;36.05;93858.19;4879732;29;8010;-63
2023/06/30 03:12:22;;;;;;;;;;;;;;;30.12;35.44;93847.09;4895662;29;7187;-62
2023/06/30 03:15:07;;;;;;;;;;;;;;;30.13;35.09;93842.28;4882074;28;9503;-63
2023/06/30 03:17:55;;;;;;;;;;;;;;;30.14;35.57;93847.28;4928605;28;8996;-63
2023/06/30 03:20:29;;;;;;;;;;;;;;;30.12;35.15;93843.59;5051665;28;8261;-62
2023/06/30 03:23:07;;;;;;;;;;;;;;;30.11;35.47;93844.88;5026947;28;9077;-62
2023/06/30 03:25:42;;;;;;;;;;;;;;;30.09;35.16;93842.66;5053498;28;7351;-62
2023/06/30 03:28:10;;;;;;;;;;;;;;;30.11;35.52;93850.41;5053291;28;8776;-62
2023/06/30 03:30:43;;;;;;;;;;;;;;;30.11;34.97;93867.81;5051632;28;7009;-62
2023/06/30 03:33:09;;;;;;;;;;;;;;;30.10;36.08;93866.31;5047347;28;7272;-62
2023/06/30 03:35:50;;;;;;;;;;;;;;;30.10;35.90;93873.91;5028942;28;9847;-61
2023/06/30 03:38:19;;;;;;;;;;;;;;;30.09;35.71;93875.94;5029671;28;7338;-62
2023/06/30 03:40:46;;;;;;;;;;;;;;;30.08;34.91;93871.66;5051639;28;8583;-61
2023/06/30 03:43:34;;;;;;;;;;;;;;;30.10;35.35;93885.00;5052113;28;9201;-62
2023/06/30 03:46:00;;;;;;;;;;;;;;;30.08;36.13;93885.53;5027482;28;9148;-62
2023/06/30 03:48:31;;;;;;;;;;;;;;;30.02;34.98;93876.66;5024767;28;7013;-62
2023/06/30 03:50:58;;;;;;;;;;;;;;;30.05;35.91;93881.13;5047062;28;7534;-61
2023/06/30 03:53:24;;;;;;;;;;;;;;;30.06;35.43;93882.56;5023197;28;6983;-62
2023/06/30 03:55:51;;;;;;;;;;;;;;;30.02;35.12;93876.66;5023870;28;7030;-62
2023/06/30 03:58:28;;;;;;;;;;;;;;;30.04;35.33;93884.41;5051141;28;7268;-62
2023/06/30 04:01:03;;;;;;;;;;;;;;;30.02;35.43;93887.75;5040816;28;9258;-62
2023/06/30 04:03:40;;;;;;;;;;;;;;;30.04;34.99;93878.88;5042866;28;9373;-62
2023/06/30 04:06:16;;;;;;;;;;;;;;;30.01;35.38;93883.50;5067822;28;7217;-62
2023/06/30 04:08:42;;;;;;;;;;;;;;;30.01;35.00;93880.00;5014083;28;7406;-62
2023/06/30 04:11:08;;;;;;;;;;;;;;;30.02;35.63;93873.88;5046343;28;9144;-62
2023/06/30 04:13:34;;;;;;;;;;;;;;;30.03;35.85;93880.19;5047930;28;8883;-62
2023/06/30 04:16:02;;;;;;;;;;;;;;;30.00;35.67;93878.50;5043146;28;9000;-62
2023/06/30 04:18:30;;;;;;;;;;;;;;;30.02;35.46;93881.47;5029925;28;7294;-63
2023/06/30 04:21:05;;;;;;;;;;;;;;;30.01;35.22;93891.09;5050366;28;7690;-62
2023/06/30 04:23:31;;;;;;;;;;;;;;;30.02;35.44;93887.75;5051585;28;7294;-62
2023/06/30 04:26:07;;;;;;;;;;;;;;;30.02;35.30;93887.75;5065873;28;6944;-63
2023/06/30 04:28:35;;;;;;;;;;;;;;;30.01;35.54;93894.59;5032058;28;7135;-63
2023/06/30 04:31:06;;;;;;;;;;;;;;;30.01;36.23;93883.50;5047032;28;7239;-62
2023/06/30 04:33:33;;;;;;;;;;;;;;;30.00;35.62;93889.59;5048010;28;7786;-62
2023/06/30 04:36:03;;;;;;;;;;;;;;;29.99;36.00;93899.22;5022154;28;6978;-62
2023/06/30 04:38:30;;;;;;;;;;;;;;;30.01;36.33;93902.19;5047295;28;7315;-62
2023/06/30 04:40:58;;;;;;;;;;;;;;;29.97;35.11;93899.03;5063136;28;7253;-62
2023/06/30 04:43:24;;;;;;;;;;;;;;;29.95;35.37;93909.94;5036480;28;7039;-63
2023/06/30 04:45:52;;;;;;;;;;;;;;;29.96;36.00;93898.28;5047319;28;6948;-63
2023/06/30 04:48:20;;;;;;;;;;;;;;;29.96;36.22;93905.84;5022857;28;7578;-63
2023/06/30 04:50:47;;;;;;;;;;;;;;;29.95;35.55;93904.41;5023693;28;9078;-63
2023/06/30 04:53:13;;;;;;;;;;;;;;;29.96;35.63;93906.59;5061492;28;8291;-63
2023/06/30 04:55:39;;;;;;;;;;;;;;;29.94;35.80;93903.66;5023920;28;7224;-62
2023/06/30 04:58:05;;;;;;;;;;;;;;;29.96;35.60;93901.06;5046389;28;9090;-63
2023/06/30 05:00:32;;;;;;;;;;;;;;;29.95;36.07;93905.13;5059041;28;9077;-63
2023/06/30 05:03:02;;;;;;;;;;;;;;;29.94;35.55;93909.19;5024494;28;8208;-63
2023/06/30 05:05:31;;;;;;;;;;;;;;;29.91;36.37;93910.28;5047837;28;7254;-63
2023/06/30 05:07:57;;;;;;;;;;;;;;;29.95;36.37;93905.13;5045967;28;9535;-63
2023/06/30 05:10:23;;;;;;;;;;;;;;;29.92;35.75;93906.22;5022324;28;9038;-63
2023/06/30 05:12:50;;;;;;;;;;;;;;;29.91;35.78;93904.00;5044826;28;9371;-63
2023/06/30 05:15:22;;;;;;;;;;;;;;;29.90;36.44;93919.16;5044743;28;8925;-63
2023/06/30 05:17:48;;;;;;;;;;;;;;;29.88;35.89;93907.88;5022276;28;7151;-61
2023/06/30 05:20:17;;;;;;;;;;;;;;;29.90;36.59;93911.59;5039099;28;7048;-61
2023/06/30 05:22:43;;;;;;;;;;;;;;;29.91;35.24;93921.38;5022427;28;7491;-61
2023/06/30 05:25:12;;;;;;;;;;;;;;;29.89;36.38;93915.66;5022800;28;9079;-61
2023/06/30 05:27:39;;;;;;;;;;;;;;;29.94;36.56;93917.50;5042327;28;6958;-61
2023/06/30 05:30:08;;;;;;;;;;;;;;;29.97;35.45;93916.38;5058759;28;7028;-62
2023/06/30 05:32:35;;;;;;;;;;;;;;;29.97;35.38;93905.28;5027828;28;9793;-61
2023/06/30 05:35:03;;;;;;;;;;;;;;;29.94;35.64;93914.75;5044056;28;8699;-61
2023/06/30 05:37:29;;;;;;;;;;;;;;;29.93;36.08;93913.25;5045880;28;9199;-61
2023/06/30 05:39:57;;;;;;;;;;;;;;;29.94;35.79;93923.06;5043497;28;7284;-61
2023/06/30 05:42:25;;;;;;;;;;;;;;;29.97;36.01;93924.72;5044928;28;9456;-61
2023/06/30 05:44:51;;;;;;;;;;;;;;;29.96;35.60;93916.94;5044940;28;7368;-61
2023/06/30 05:47:17;;;;;;;;;;;;;;;29.96;36.23;93917.69;5042864;28;6999;-61
2023/06/30 05:49:43;;;;;;;;;;;;;;;29.96;36.22;93914.94;5044852;28;7373;-61
2023/06/30 05:52:11;;;;;;;;;;;;;;;29.91;35.56;93909.53;5042776;28;8749;-61
2023/06/30 05:54:37;;;;;;;;;;;;;;;29.96;35.90;93923.25;5040989;28;7272;-61
2023/06/30 05:57:06;;;;;;;;;;;;;;;29.97;36.38;93929.53;5062769;28;7410;-61
2023/06/30 05:59:40;;;;;;;;;;;;;;;29.96;36.44;93923.25;5031790;28;9057;-61
2023/06/30 06:02:19;;;;;;;;;;;;;;;30.00;36.42;93923.63;5045408;28;7046;-61
2023/06/30 06:05:12;;;;;;;;;;;;;;;30.01;36.57;93927.88;5031766;28;6987;-61
2023/06/30 06:07:47;;;;;;;;;;;;;;;30.02;36.07;93934.91;5065647;28;6995;-61
2023/06/30 06:10:13;;;;;;;;;;;;;;;30.02;35.95;93934.91;5048760;28;8799;-61
2023/06/30 06:12:43;;;;;;;;;;;;;;;30.03;36.23;93930.84;5027145;28;9080;-62
2023/06/30 06:15:24;;;;;;;;;;;;;;;29.99;36.51;93922.16;5048208;28;7137;-61
2023/06/30 06:18:00;;;;;;;;;;;;;;;30.03;36.61;93933.63;5043676;28;7479;-62
2023/06/30 06:20:28;;;;;;;;;;;;;;;30.01;35.96;93936.22;5064580;28;7242;-62
2023/06/30 06:22:55;;;;;;;;;;;;;;;30.00;35.65;93937.50;5028025;28;7531;-62
2023/06/30 06:25:21;;;;;;;;;;;;;;;30.00;36.58;93931.94;5033346;28;7078;-62
2023/06/30 06:27:57;;;;;;;;;;;;;;;30.01;36.41;93936.22;5067529;28;7526;-62
2023/06/30 06:30:39;;;;;;;;;;;;;;;30.05;35.75;93941.38;5064678;28;10098;-62
2023/06/30 06:33:10;;;;;;;;;;;;;;;30.05;36.09;93944.91;5052529;28;7247;-62
2023/06/30 06:35:39;;;;;;;;;;;;;;;30.05;36.60;93953.22;5050986;28;7080;-62
2023/06/30 06:38:34;;;;;;;;;;;;;;;30.03;36.42;93953.03;5050573;28;7477;-62
2023/06/30 06:41:21;;;;;;;;;;;;;;;30.06;36.92;93953.97;4941559;28;7722;-61
2023/06/30 06:43:51;;;;;;;;;;;;;;;30.03;36.08;93953.03;4954120;28;7239;-62
2023/06/30 06:46:42;;;;;;;;;;;;;;;29.96;36.33;93950.97;4961007;28;9063;-62
2023/06/30 06:49:38;;;;;;;;;;;;;;;29.98;36.87;93964.28;4965603;28;7599;-62
2023/06/30 06:52:23;;;;;;;;;;;;;;;29.97;36.40;93960.75;4966431;28;7207;-62
2023/06/30 06:54:49;;;;;;;;;;;;;;;29.95;36.21;93957.09;4943446;28;7674;-63
2023/06/30 06:57:16;;;;;;;;;;;;;;;29.99;36.57;93968.56;4965961;28;7180;-62
2023/06/30 07:00:13;;;;;;;;;;;;;;;30.00;36.46;93961.69;4958647;28;9085;-62
2023/06/30 07:02:50;;;;;;;;;;;;;;;30.00;35.59;93961.69;4879490;29;9306;-62
2023/06/30 07:05:27;;;;;;;;;;;;;;;30.00;36.22;93967.25;4890016;29;9140;-62
2023/06/30 07:08:09;;;;;;;;;;;;;;;29.98;36.30;93965.03;4903922;29;7061;-62
2023/06/30 07:11:13;;;;;;;;;;;;;;;29.98;36.44;93965.03;4906216;29;7632;-62
2023/06/30 07:14:01;;;;;;;;;;;;;;;30.00;36.50;93970.75;4911122;29;7668;-61
2023/06/30 07:16:49;;;;;;;;;;;;;;;29.97;35.96;93966.31;4909223;28;7197;-62
2023/06/30 07:19:16;;;;;;;;;;;;;;;29.97;35.53;93968.38;4971704;28;7387;-62
2023/06/30 07:22:10;;;;;;;;;;;;;;;29.98;36.02;93969.81;4970349;28;7093;-62
2023/06/30 07:24:41;;;;;;;;;;;;;;;29.99;36.35;93972.06;4990120;28;7296;-62
2023/06/30 07:27:07;;;;;;;;;;;;;;;29.98;35.90;93965.03;4989224;28;7522;-61
2023/06/30 07:29:49;;;;;;;;;;;;;;;30.00;36.31;93967.25;4990821;28;7148;-61
2023/06/30 07:32:47;;;;;;;;;;;;;;;30.00;36.14;93964.47;4990086;28;7389;-61
2023/06/30 07:35:13;;;;;;;;;;;;;;;29.98;36.07;93969.81;4917734;29;7129;-61
2023/06/30 07:37:40;;;;;;;;;;;;;;;30.00;37.06;93973.53;4918364;29;9039;-62
2023/06/30 07:40:07;;;;;;;;;;;;;;;29.99;37.07;93966.53;4986997;28;7313;-62
2023/06/30 07:42:42;;;;;;;;;;;;;;;30.01;37.21;93971.50;4991367;28;8386;-61
2023/06/30 07:45:42;;;;;;;;;;;;;;;30.00;37.30;93970.03;4975169;28;9308;-62
2023/06/30 07:48:39;;;;;;;;;;;;;;;29.99;37.43;93977.63;4916493;29;7446;-62
2023/06/30 07:51:05;;;;;;;;;;;;;;;29.98;37.14;93975.38;4876122;29;7525;-61
2023/06/30 07:54:04;;;;;;;;;;;;;;;29.97;36.38;93979.44;4877369;29;9116;-61
2023/06/30 07:56:41;;;;;;;;;;;;;;;29.95;36.50;93974.44;4807488;29;7027;-62
2023/06/30 07:59:08;;;;;;;;;;;;;;;29.94;36.31;93981.28;4822212;29;7240;-61
2023/06/30 08:02:03;;;;;;;;;;;;;;;29.95;37.43;93977.22;4809344;29;7044;-61
2023/06/30 08:04:46;;;;;;;;;;;;;;;29.99;36.91;93983.16;4820729;29;7339;-62
2023/06/30 08:07:12;;;;;;;;;;;;;;;30.00;37.39;93992.22;4808836;29;7430;-62
2023/06/30 08:09:43;;;;;;;;;;;;;;;30.00;36.33;93994.97;4821062;29;7000;-62
2023/06/30 08:12:28;;;;;;;;;;;;;;;30.00;37.08;93995.72;4843793;29;7552;-61
2023/06/30 08:14:56;;;;;;;;;;;;;;;29.99;37.10;93997.03;4836520;29;7270;-61
2023/06/30 08:17:21;;;;;;;;;;;;;;;30.02;36.83;93995.16;4835705;29;7010;-62
2023/06/30 08:19:54;;;;;;;;;;;;;;;29.99;37.43;93997.03;4833026;29;9816;-61
2023/06/30 08:22:21;;;;;;;;;;;;;;;29.99;36.88;94002.56;4848111;29;7231;-62
2023/06/30 08:24:47;;;;;;;;;;;;;;;29.99;36.84;93999.81;4854812;29;7387;-61
2023/06/30 08:27:29;;;;;;;;;;;;;;;29.97;37.41;93991.25;4895725;29;7172;-61
2023/06/30 08:30:28;;;;;;;;;;;;;;;29.98;37.02;94005.88;4944966;28;8088;-62
2023/06/30 08:33:11;;;;;;;;;;;;;;;29.97;36.83;94005.13;4976624;28;8836;-61
2023/06/30 08:36:26;;;;;;;;;;;;;;;29.95;37.54;93999.41;4988535;28;7173;-61
2023/06/30 08:38:54;;;;;;;;;;;;;;;29.98;36.56;93998.31;4965897;28;7436;-61
2023/06/30 08:41:33;;;;;;;;;;;;;;;29.99;36.33;93994.25;4953984;28;9347;-61
2023/06/30 08:44:12;;;;;;;;;;;;;;;29.97;37.41;93998.88;4968414;28;7299;-61
2023/06/30 08:46:39;;;;;;;;;;;;;;;29.94;36.60;94002.72;4962956;28;9084;-61
2023/06/30 08:49:13;;;;;;;;;;;;;;;29.94;37.63;94006.25;4948680;28;6982;-61
2023/06/30 08:51:41;;;;;;;;;;;;;;;29.93;36.74;94004.75;4942934;28;8832;-61
2023/06/30 08:54:09;;;;;;;;;;;;;;;29.92;36.96;94005.31;4957431;28;6976;-61
2023/06/30 08:56:49;;;;;;;;;;;;;;;29.92;37.40;94008.09;4949689;28;9151;-61
2023/06/30 08:59:35;;;;;;;;;;;;;;;29.91;37.41;94001.78;4954488;28;9089;-60
2023/06/30 09:02:13;;;;;;;;;;;;;;;29.92;37.51;94006.06;4953120;28;7407;-61
2023/06/30 09:04:51;;;;;;;;;;;;;;;29.94;37.19;94017.34;4948373;28;9055;-61
2023/06/30 09:07:25;;;;;;;;;;;;;;;29.93;36.35;94015.84;4965337;28;9260;-61
2023/06/30 09:10:03;;;;;;;;;;;;;;;29.96;36.55;94009.22;5017755;28;7427;-61
2023/06/30 09:12:32;;;;;;;;;;;;;;;29.98;36.73;94009.41;5003929;28;7409;-61
2023/06/30 09:15:01;;;;;;;;;;;;;;;29.96;36.68;94003.66;4994266;28;7534;-61
2023/06/30 09:17:28;;;;;;;;;;;;;;;29.99;37.56;93999.06;5042874;28;9254;-61
2023/06/30 09:19:57;;;;;;;;;;;;;;;29.98;37.14;93995.53;5060898;28;7146;-61
2023/06/30 09:22:34;;;;;;;;;;;;;;;30.00;36.70;93992.22;5046833;28;7459;-60
2023/06/30 09:25:07;;;;;;;;;;;;;;;29.97;36.80;93996.09;5064189;28;9036;-61
2023/06/30 09:27:42;;;;;;;;;;;;;;;29.99;37.09;93999.81;5047857;28;7376;-61
2023/06/30 09:30:15;;;;;;;;;;;;;;;30.00;36.64;93995.72;5025791;28;7229;-61
2023/06/30 09:33:20;;;;;;;;;;;;;;;30.01;36.46;93991.66;5032106;28;7234;-62
2023/06/30 09:35:47;;;;;;;;;;;;;;;29.96;36.58;93987.03;4965102;28;8804;-61
2023/06/30 09:38:42;;;;;;;;;;;;;;;29.99;36.68;93983.16;4982838;28;9053;-61
2023/06/30 09:41:22;;;;;;;;;;;;;;;29.98;37.06;93978.91;4987915;28;7472;-61
2023/06/30 09:44:20;;;;;;;;;;;;;;;29.99;37.44;93969.28;4985029;28;7238;-61
2023/06/30 09:47:12;;;;;;;;;;;;;;;30.02;37.72;93968.19;4969895;28;9030;-61
2023/06/30 09:49:55;;;;;;;;;;;;;;;30.01;36.48;93966.72;4987992;28;7322;-62
2023/06/30 09:52:34;;;;;;;;;;;;;;;30.05;36.62;93969.88;4965410;28;9150;-62
2023/06/30 09:55:14;;;;;;;;;;;;;;;30.07;37.51;93963.75;4983113;28;7248;-62
2023/06/30 09:57:52;;;;;;;;;;;;;;;30.08;36.56;93968.75;4967432;28;7116;-61
2023/06/30 10:00:28;;;;;;;;;;;;;;;30.05;36.81;93969.88;4984253;28;7166;-61
2023/06/30 10:03:09;;;;;;;;;;;;;;;30.07;37.10;93963.75;4971421;28;7292;-62
2023/06/30 10:05:38;;;;;;;;;;;;;;;30.05;37.80;93969.88;4974232;28;7412;-61
2023/06/30 10:08:17;;;;;;;;;;;;;;;30.07;38.32;93972.06;4970831;28;7334;-61
2023/06/30 10:11:23;;;;;;;;;;;;;;;30.07;38.61;93964.50;5025777;28;9150;-61
2023/06/30 10:14:13;;;;;;;;;;;;;;;30.07;38.13;93967.28;4974375;28;7270;-61
2023/06/30 10:16:41;;;;;;;;;;;;;;;30.08;38.53;93973.56;4972444;28;7965;-62
2023/06/30 10:19:10;;;;;;;;;;;;;;;30.07;37.95;93970.06;4990011;28;7920;-61
2023/06/30 10:21:45;;;;;;;;;;;;;;;30.02;39.02;93957.09;4971596;28;7173;-61
2023/06/30 10:24:26;;;;;;;;;;;;;;;30.03;38.84;93957.84;4988448;28;7991;-61
2023/06/30 10:27:06;;;;;;;;;;;;;;;30.03;38.17;93958.59;4991257;28;6985;-61
2023/06/30 10:29:45;;;;;;;;;;;;;;;30.05;38.38;93961.53;4972676;28;7510;-61
2023/06/30 10:32:20;;;;;;;;;;;;;;;30.03;38.21;93958.59;4985199;28;7099;-62
2023/06/30 10:34:50;;;;;;;;;;;;;;;30.04;38.55;93956.53;4986188;28;7239;-60
2023/06/30 10:37:18;;;;;;;;;;;;;;;30.04;38.11;93962.81;4970412;28;7403;-61
2023/06/30 10:40:22;;;;;;;;;;;;;;;30.04;37.44;93962.81;4972198;28;8860;-61
2023/06/30 10:43:06;;;;;;;;;;;;;;;30.06;38.18;93965.78;4989419;28;9491;-61
2023/06/30 10:46:03;;;;;;;;;;;;;;;30.06;38.17;93965.78;4990247;28;7224;-61
2023/06/30 10:48:30;;;;;;;;;;;;;;;30.06;38.66;93960.25;5019475;28;7004;-61
2023/06/30 10:51:15;;;;;;;;;;;;;;;30.07;38.78;93958.97;5052796;28;7077;-61
2023/06/30 10:53:44;;;;;;;;;;;;;;;30.08;38.22;93949.34;5033502;28;7248;-61
2023/06/30 10:56:11;;;;;;;;;;;;;;;30.10;37.71;93943.25;5035681;28;7322;-61
2023/06/30 10:59:30;;;;;;;;;;;;;;;30.12;38.19;93944.19;5028054;28;7541;-61
2023/06/30 11:02:19;;;;;;;;;;;;;;;30.15;38.75;93939.53;4988284;28;7440;-62
2023/06/30 11:05:24;;;;;;;;;;;;;;;30.15;38.42;93939.53;4999133;28;9452;-62
2023/06/30 11:08:27;;;;;;;;;;;;;;;30.16;37.69;93941.03;5007406;28;9093;-61
2023/06/30 11:11:06;;;;;;;;;;;;;;;30.16;38.41;93941.78;4913665;29;8867;-61
2023/06/30 11:13:41;;;;;;;;;;;;;;;30.18;38.26;93944.00;4915973;29;7010;-61
2023/06/30 11:16:09;;;;;;;;;;;;;;;30.18;38.03;93933.66;4914051;29;7332;-61
2023/06/30 11:18:39;;;;;;;;;;;;;;;30.20;38.42;93933.84;4916049;29;7316;-61
2023/06/30 11:21:07;;;;;;;;;;;;;;;30.22;38.16;93933.28;4914240;29;7351;-61
2023/06/30 11:23:38;;;;;;;;;;;;;;;30.22;38.04;93931.25;4914556;29;7132;-61
2023/06/30 11:26:21;;;;;;;;;;;;;;;30.25;38.19;93929.41;4914421;29;7892;-61
2023/06/30 11:29:02;;;;;;;;;;;;;;;30.23;38.47;93927.16;4929425;29;7248;-61
2023/06/30 11:31:40;;;;;;;;;;;;;;;30.26;37.55;93928.09;4915946;29;7329;-61
2023/06/30 11:34:07;;;;;;;;;;;;;;;30.24;38.19;93923.09;4930913;29;9375;-62
2023/06/30 11:36:41;;;;;;;;;;;;;;;30.25;37.70;93916.28;4932471;28;7025;-61
2023/06/30 11:39:37;;;;;;;;;;;;;;;30.27;38.67;93913.69;4966433;28;6988;-61
2023/06/30 11:42:20;;;;;;;;;;;;;;;30.26;37.99;93912.19;4918018;28;7157;-61
2023/06/30 11:45:21;;;;;;;;;;;;;;;30.29;37.51;93918.69;4970000;28;6991;-61
2023/06/30 11:47:56;;;;;;;;;;;;;;;30.29;38.70;93918.69;4940645;28;7147;-61
2023/06/30 11:50:22;;;;;;;;;;;;;;;30.23;38.11;93907.03;4952340;28;7168;-62
2023/06/30 11:53:08;;;;;;;;;;;;;;;30.26;38.65;93911.44;4927926;28;9098;-62
2023/06/30 11:55:50;;;;;;;;;;;;;;;30.26;37.98;93914.22;4963659;28;7764;-62
2023/06/30 11:58:19;;;;;;;;;;;;;;;30.26;38.07;93912.19;4944948;28;7346;-62
2023/06/30 12:01:14;;;;;;;;;;;;;;;30.25;37.54;93913.50;4942599;28;7227;-61
2023/06/30 12:03:44;;;;;;;;;;;;;;;30.25;38.41;93913.50;4964424;28;9240;-61
2023/06/30 12:06:25;;;;;;;;;;;;;;;30.25;37.95;93912.75;4957959;28;9436;-62
2023/06/30 12:09:07;;;;;;;;;;;;;;;30.24;37.26;93909.25;4958818;28;9084;-61
2023/06/30 12:11:34;;;;;;;;;;;;;;;30.26;38.04;93906.66;4957406;28;7325;-62
2023/06/30 12:14:11;;;;;;;;;;;;;;;30.23;37.68;93898.72;4943093;28;7275;-62
2023/06/30 12:16:49;;;;;;;;;;;;;;;30.25;37.76;93907.97;4941578;28;9231;-62
2023/06/30 12:19:31;;;;;;;;;;;;;;;30.23;37.55;93913.28;4960560;28;8956;-61
2023/06/30 12:21:59;;;;;;;;;;;;;;;30.23;38.39;93913.28;4975064;28;7480;-61
2023/06/30 12:24:38;;;;;;;;;;;;;;;30.25;37.64;93909.97;4982723;28;7799;-61
2023/06/30 12:27:19;;;;;;;;;;;;;;;30.23;38.20;93901.47;4985454;28;7151;-62
2023/06/30 12:29:50;;;;;;;;;;;;;;;30.22;38.17;93905.53;4984317;28;7252;-62
2023/06/30 12:32:27;;;;;;;;;;;;;;;30.19;37.30;93906.66;5018822;28;7187;-63
2023/06/30 12:35:07;;;;;;;;;;;;;;;30.23;38.36;93904.25;5007194;28;7208;-62
2023/06/30 12:37:44;;;;;;;;;;;;;;;30.22;38.40;93906.28;4993444;28;6991;-62
2023/06/30 12:40:26;;;;;;;;;;;;;;;30.22;38.32;93911.81;5026621;28;9431;-62
2023/06/30 12:43:13;;;;;;;;;;;;;;;30.23;38.57;93926.44;5049399;28;9437;-62
2023/06/30 12:45:49;;;;;;;;;;;;;;;30.20;37.47;93917.19;5044916;28;7586;-62
2023/06/30 12:48:45;;;;;;;;;;;;;;;30.19;38.44;93912.91;5047389;28;8231;-63
2023/06/30 12:51:32;;;;;;;;;;;;;;;30.21;37.34;93920.72;4970966;28;8923;-62
2023/06/30 12:53:58;;;;;;;;;;;;;;;30.22;38.33;93924.94;4958096;28;9122;-63
2023/06/30 12:56:28;;;;;;;;;;;;;;;30.23;38.36;93921.63;4969395;28;7148;-62
2023/06/30 12:59:07;;;;;;;;;;;;;;;30.23;38.43;93921.63;4968730;28;7270;-62
2023/06/30 13:02:24;;;;;;;;;;;;;;;30.22;38.53;93924.94;4970916;28;9110;-62
2023/06/30 13:04:52;;;;;;;;;;;;;;;30.18;38.07;93921.81;4951704;28;7570;-63
2023/06/30 13:08:09;;;;;;;;;;;;;;;30.17;38.37;93932.16;4951556;28;8229;-62
2023/06/30 13:11:08;;;;;;;;;;;;;;;30.16;38.40;93936.25;4898191;29;8121;-62
2023/06/30 13:13:44;;;;;;;;;;;;;;;30.17;37.48;93937.69;4914204;29;9536;-62
2023/06/30 13:16:14;;;;;;;;;;;;;;;30.18;37.85;93939.19;4912547;29;8381;-62
2023/06/30 13:18:41;;;;;;;;;;;;;;;30.17;38.27;93942.50;4913848;29;7434;-62
2023/06/30 13:21:40;;;;;;;;;;;;;;;30.16;38.58;93935.50;4912803;29;7069;-62
2023/06/30 13:24:07;;;;;;;;;;;;;;;30.16;38.33;93941.78;4912291;29;9141;-62
2023/06/30 13:26:42;;;;;;;;;;;;;;;30.14;38.07;93938.81;4912537;29;7191;-62
2023/06/30 13:29:45;;;;;;;;;;;;;;;30.17;37.70;93939.72;4912979;29;8939;-62
2023/06/30 13:32:45;;;;;;;;;;;;;;;30.18;37.81;93955.84;4931306;29;7312;-62
2023/06/30 13:35:25;;;;;;;;;;;;;;;30.18;38.62;93947.53;4956204;28;6994;-62
2023/06/30 13:37:54;;;;;;;;;;;;;;;30.16;37.98;93944.56;4961078;28;9320;-62
2023/06/30 13:40:23;;;;;;;;;;;;;;;30.18;37.52;93955.84;4958659;28;9065;-62
2023/06/30 13:43:19;;;;;;;;;;;;;;;30.18;38.34;93949.53;4935926;29;8012;-61
2023/06/30 13:45:59;;;;;;;;;;;;;;;30.14;37.42;93952.69;4919707;29;9427;-62
2023/06/30 13:48:24;;;;;;;;;;;;;;;30.14;37.95;93944.38;5003218;28;9053;-62
2023/06/30 13:50:50;;;;;;;;;;;;;;;30.16;37.72;93946.59;4973746;28;7129;-62
2023/06/30 13:53:19;;;;;;;;;;;;;;;30.10;37.52;93948.81;4969288;28;7149;-62
2023/06/30 13:55:45;;;;;;;;;;;;;;;30.12;38.81;93949.72;4970963;28;9181;-62